createdAt,value
2022-11-25T20:16:40.146Z,43.47
2022-11-25T20:19:02.120Z,100.40
2022-11-25T20:20:33.343Z,125.93
2022-11-25T20:21:54.258Z,141.50
2022-11-25T20:23:25.728Z,87.03
2022-11-25T20:24:47.141Z,91.05
2022-11-25T20:26:24.633Z,39.88
2022-11-25T20:27:45.502Z,27.65
2022-11-25T20:29:19.130Z,20.30
2022-11-25T20:30:39.921Z,22.70
2022-11-25T20:32:25.999Z,24.50
2022-11-25T20:33:48.458Z,24.90
2022-11-25T20:35:11.144Z,22.00
2022-11-25T20:36:33.450Z,19.85
2022-11-25T20:37:54.829Z,17.70
2022-11-25T20:39:19.165Z,21.60
2022-11-25T20:40:42.413Z,26.45
2022-11-25T20:42:03.702Z,23.75
2022-11-25T20:43:39.104Z,25.10
2022-11-25T20:44:59.985Z,29.55
2022-11-25T20:46:23.961Z,28.52
2022-11-25T20:47:45.994Z,42.88
2022-11-25T20:49:21.663Z,93.80
2022-11-25T20:50:43.079Z,102.03
2022-11-25T20:52:05.320Z,106.38
2022-11-25T20:53:28.095Z,86.15
2022-11-25T20:54:49.362Z,132.30
2022-11-25T20:56:23.982Z,65.80
2022-11-25T20:57:45.073Z,62.92
2022-11-25T20:59:18.425Z,53.42
2022-11-25T21:00:39.340Z,54.13
2022-11-25T21:02:00.435Z,37.05
2022-11-25T21:03:22.039Z,118.47
2022-11-25T21:04:43.709Z,79.93
2022-11-25T21:06:21.332Z,52.92
2022-11-25T21:07:44.445Z,54.03
2022-11-25T21:09:07.281Z,33.55
2022-11-25T21:10:34.872Z,38.53
2022-11-25T21:11:56.304Z,34.58
2022-11-25T21:13:21.450Z,35.35
2022-11-25T21:14:42.413Z,28.95
2022-11-25T21:16:03.235Z,38.58
2022-11-25T21:17:24.336Z,36.55
2022-11-25T21:18:45.669Z,44.28
2022-11-25T21:20:08.398Z,46.50
2022-11-25T21:21:33.219Z,55.90
2022-11-25T21:22:58.094Z,125.07
2022-11-25T21:24:30.417Z,81.65
2022-11-25T21:25:51.545Z,53.70
2022-11-25T21:27:16.318Z,70.50
2022-11-25T21:28:41.825Z,83.57
2022-11-25T21:30:02.654Z,124.80
2022-11-25T21:31:25.931Z,65.80
2022-11-25T21:32:47.856Z,32.22
2022-11-25T21:34:14.058Z,19.48
2022-11-25T21:35:38.917Z,17.50
2022-11-25T21:37:00.329Z,81.03
2022-11-25T21:38:24.590Z,170.48
2022-11-25T21:39:45.642Z,65.25
2022-11-25T21:41:07.636Z,62.80
2022-11-25T21:42:30.234Z,73.65
2022-11-25T21:43:51.430Z,68.90
2022-11-25T21:45:16.903Z,77.40
2022-11-25T21:46:38.015Z,56.90
2022-11-25T21:47:59.269Z,61.25
2022-11-25T21:49:20.006Z,47.22
2022-11-25T21:50:41.118Z,108.65
2022-11-25T21:52:02.240Z,88.63
2022-11-25T21:53:23.897Z,97.88
2022-11-25T21:54:45.504Z,66.18
2022-11-25T21:56:18.055Z,67.88
2022-11-25T21:57:39.842Z,97.50
2022-11-25T21:59:02.891Z,60.92
2022-11-25T22:00:25.946Z,47.97
2022-11-25T22:01:48.030Z,45.05
2022-11-25T22:03:15.925Z,14.98
2022-11-25T22:04:37.330Z,22.88
2022-11-25T22:05:58.300Z,20.95
2022-11-25T22:07:19.485Z,17.92
2022-11-25T22:08:40.717Z,19.00
2022-11-25T22:10:01.958Z,16.35
2022-11-25T22:11:31.964Z,13.75
2022-11-25T22:12:53.016Z,13.05
2022-11-25T22:14:25.382Z,10.68
2022-11-25T22:15:47.535Z,11.05
2022-11-25T22:17:16.937Z,11.25
2022-11-25T22:18:40.445Z,12.57
2022-11-25T22:20:01.890Z,12.23
2022-11-25T22:21:23.187Z,14.15
2022-11-25T22:22:44.001Z,21.17
2022-11-25T22:24:14.428Z,23.05
2022-11-25T22:25:35.594Z,14.30
2022-11-25T22:26:58.295Z,15.60
2022-11-25T22:28:26.157Z,16.08
2022-11-25T22:29:47.975Z,15.82
2022-11-25T22:31:19.373Z,15.77
2022-11-25T22:32:40.820Z,18.02
2022-11-25T22:34:01.865Z,18.35
2022-11-25T22:35:23.030Z,27.27
2022-11-25T22:36:44.095Z,29.23
2022-11-25T22:38:15.929Z,28.40
2022-11-25T22:39:36.837Z,30.00
2022-11-25T22:41:03.972Z,25.75
2022-11-25T22:42:28.617Z,23.90
2022-11-25T22:43:52.481Z,25.88
2022-11-25T22:45:33.862Z,26.73
2022-11-25T22:46:55.361Z,32.22
2022-11-25T22:48:20.606Z,21.13
2022-11-25T22:49:47.299Z,26.80
2022-11-25T22:51:16.558Z,46.63
2022-11-25T22:52:37.473Z,45.72
2022-11-25T22:53:58.701Z,43.25
2022-11-25T22:55:28.444Z,27.63
2022-11-25T22:56:49.670Z,55.40
2022-11-25T22:58:12.860Z,50.70
2022-11-25T22:59:33.850Z,42.92
2022-11-25T23:00:56.930Z,41.40
2022-11-25T23:02:32.617Z,35.95
2022-11-25T23:03:54.007Z,25.73
2022-11-25T23:05:32.615Z,27.58
2022-11-25T23:06:56.147Z,27.15
2022-11-25T23:08:26.231Z,22.92
2022-11-25T23:09:47.335Z,20.08
2022-11-25T23:11:17.740Z,18.45
2022-11-25T23:12:40.244Z,25.60
2022-11-25T23:14:00.965Z,24.65
2022-11-25T23:15:24.093Z,29.73
2022-11-25T23:16:45.742Z,24.70
2022-11-25T23:18:13.880Z,25.40
2022-11-25T23:19:34.837Z,27.40
2022-11-25T23:20:56.115Z,29.48
2022-11-25T23:22:17.941Z,24.38
2022-11-25T23:23:39.238Z,25.35
2022-11-25T23:25:00.135Z,30.30
2022-11-25T23:26:21.406Z,23.83
2022-11-25T23:27:42.824Z,26.00
2022-11-25T23:29:04.196Z,25.48
2022-11-25T23:30:25.104Z,25.83
2022-11-25T23:31:46.773Z,23.73
2022-11-25T23:33:18.280Z,22.40
2022-11-25T23:34:39.695Z,19.20
2022-11-25T23:36:06.201Z,19.10
2022-11-25T23:37:29.848Z,21.23
2022-11-25T23:38:54.906Z,19.85
2022-11-25T23:40:21.029Z,19.38
2022-11-25T23:41:41.935Z,29.25
2022-11-25T23:43:03.138Z,24.05
2022-11-25T23:44:31.816Z,23.17
2022-11-25T23:45:55.681Z,22.40
2022-11-25T23:47:20.689Z,29.55
2022-11-25T23:48:43.811Z,35.28
2022-11-25T23:50:05.803Z,32.53
2022-11-25T23:51:28.387Z,32.17
2022-11-25T23:52:50.433Z,29.75
2022-11-25T23:54:15.481Z,33.85
2022-11-25T23:55:38.757Z,35.17
2022-11-25T23:57:02.099Z,39.47
2022-11-25T23:58:23.472Z,30.48
2022-11-25T23:59:45.271Z,33.35
